Time;durP1;ratioP1;P1;durP2;ratioP2;P2;SDS_P1;SDS_P2;PMS_P1;PMS_P2;Temp;Humidity;BMP_temperature;BMP_pressure;BME280_temperature;BME280_humidity;BME280_pressure;Samples;Min_cycle;Max_cycle;Signal;HPM_P1;HPM_P2
2022/04/20 00:00:05;;;;;;;;;;;19.30;52.00;;;;;;5040301;28;20389;-56
2022/04/20 00:02:31;;;;;;;;;;;19.30;51.40;;;;;;5039213;28;19921;-55
2022/04/20 00:04:56;;;;;;;;;;;19.30;51.40;;;;;;5042384;28;19920;-56
2022/04/20 00:07:22;;;;;;;;;;;19.30;51.40;;;;;;5042760;28;19936;-57
2022/04/20 00:09:48;;;;;;;;;;;19.30;51.40;;;;;;5040467;28;19913;-55
2022/04/20 00:12:13;;;;;;;;;;;19.30;51.40;;;;;;5041499;28;19913;-55
2022/04/20 00:14:38;;;;;;;;;;;19.20;51.30;;;;;;5042740;28;19913;-58
2022/04/20 00:17:04;;;;;;;;;;;19.20;51.20;;;;;;5042100;28;19927;-57
2022/04/20 00:19:29;;;;;;;;;;;19.20;51.20;;;;;;5040242;28;19955;-55
2022/04/20 00:21:55;;;;;;;;;;;19.20;51.20;;;;;;5041307;28;19913;-58
2022/04/20 00:24:20;;;;;;;;;;;19.20;51.20;;;;;;5042730;28;20561;-55
2022/04/20 00:26:46;;;;;;;;;;;19.20;51.20;;;;;;5041346;28;19979;-56
2022/04/20 00:29:11;;;;;;;;;;;19.20;51.20;;;;;;5039673;28;19920;-58
2022/04/20 00:31:37;;;;;;;;;;;19.20;51.20;;;;;;5041017;28;20363;-55
2022/04/20 00:34:02;;;;;;;;;;;19.20;51.20;;;;;;5042199;28;19947;-58
2022/04/20 00:36:27;;;;;;;;;;;19.20;51.20;;;;;;5042374;28;19932;-55
2022/04/20 00:38:53;;;;;;;;;;;19.20;51.10;;;;;;5055245;28;20468;-56
2022/04/20 00:41:18;;;;;;;;;;;19.20;51.20;;;;;;5057111;28;19921;-58
2022/04/20 00:43:44;;;;;;;;;;;19.20;51.10;;;;;;5040890;28;19920;-58
2022/04/20 00:46:09;;;;;;;;;;;19.10;51.10;;;;;;5040181;28;19913;-57
2022/04/20 00:48:35;;;;;;;;;;;19.20;51.10;;;;;;5039261;28;19921;-57
2022/04/20 00:51:01;;;;;;;;;;;19.10;51.00;;;;;;5024231;28;19913;-57
2022/04/20 00:53:26;;;;;;;;;;;19.10;51.00;;;;;;5042452;28;19924;-58
2022/04/20 00:55:52;;;;;;;;;;;19.10;51.00;;;;;;5041795;28;19946;-55
2022/04/20 00:58:17;;;;;;;;;;;19.10;51.00;;;;;;5041699;28;20362;-57
2022/04/20 01:00:43;;;;;;;;;;;19.10;51.00;;;;;;5040446;28;19920;-56
2022/04/20 01:03:08;;;;;;;;;;;19.10;51.00;;;;;;5041731;28;19913;-57
2022/04/20 01:05:34;;;;;;;;;;;19.10;50.90;;;;;;5041641;28;19984;-57
2022/04/20 01:07:59;;;;;;;;;;;19.10;50.90;;;;;;5040591;28;19923;-58
2022/04/20 01:10:25;;;;;;;;;;;19.10;50.90;;;;;;5041770;28;19956;-55
2022/04/20 01:12:50;;;;;;;;;;;19.10;50.90;;;;;;5040954;28;19927;-55
2022/04/20 01:15:17;;;;;;;;;;;19.10;50.90;;;;;;5041399;28;19925;-55
2022/04/20 01:17:43;;;;;;;;;;;19.10;51.00;;;;;;5042242;28;20459;-54
2022/04/20 01:20:12;;;;;;;;;;;19.10;50.90;;;;;;5039256;28;19912;-58
2022/04/20 01:22:38;;;;;;;;;;;19.10;50.90;;;;;;5040941;28;19916;-57
2022/04/20 01:25:03;;;;;;;;;;;19.10;50.90;;;;;;5042648;28;20061;-55
2022/04/20 01:27:29;;;;;;;;;;;19.00;50.90;;;;;;5044820;28;19913;-57
2022/04/20 01:29:54;;;;;;;;;;;19.00;50.90;;;;;;5041179;28;20374;-57
2022/04/20 01:32:20;;;;;;;;;;;19.10;50.90;;;;;;5042451;28;19920;-55
2022/04/20 01:34:45;;;;;;;;;;;19.00;50.80;;;;;;5041629;28;20121;-57
2022/04/20 01:37:10;;;;;;;;;;;19.00;50.80;;;;;;5042294;28;19921;-58
2022/04/20 01:39:36;;;;;;;;;;;19.00;50.90;;;;;;5040577;28;20403;-58
2022/04/20 01:42:02;;;;;;;;;;;19.00;50.80;;;;;;5042445;28;19917;-56
2022/04/20 01:44:27;;;;;;;;;;;19.00;50.80;;;;;;5041421;28;19916;-56
2022/04/20 01:46:53;;;;;;;;;;;19.00;50.80;;;;;;5038873;28;19917;-55
2022/04/20 01:49:18;;;;;;;;;;;19.00;50.80;;;;;;5040366;28;20297;-55
2022/04/20 01:51:54;;;;;;;;;;;19.00;50.70;;;;;;5041656;28;20017;-56
2022/04/20 01:54:19;;;;;;;;;;;19.00;50.80;;;;;;5041951;28;20547;-58
2022/04/20 01:56:46;;;;;;;;;;;19.00;50.70;;;;;;5040246;28;19917;-57
2022/04/20 01:59:12;;;;;;;;;;;19.00;50.70;;;;;;5038592;28;20007;-56
2022/04/20 02:04:21;;;;;;;;;;;19.00;50.70;;;;;;5041056;28;20297;-56
2022/04/20 02:06:47;;;;;;;;;;;19.00;50.70;;;;;;5041462;28;19920;-57
2022/04/20 02:09:12;;;;;;;;;;;19.00;50.70;;;;;;5039618;28;20286;-58
2022/04/20 02:11:38;;;;;;;;;;;19.00;50.70;;;;;;5041380;28;19928;-56
2022/04/20 02:14:04;;;;;;;;;;;19.00;50.70;;;;;;5039328;28;19953;-56
2022/04/20 02:16:29;;;;;;;;;;;19.00;50.70;;;;;;5041285;28;20378;-59
2022/04/20 02:18:56;;;;;;;;;;;19.00;50.70;;;;;;5038883;28;21829;-57
2022/04/20 02:21:21;;;;;;;;;;;19.00;50.70;;;;;;5040668;28;19924;-58
2022/04/20 02:23:47;;;;;;;;;;;18.90;50.70;;;;;;5040034;28;20321;-57
2022/04/20 02:26:12;;;;;;;;;;;18.90;50.60;;;;;;5043393;28;19944;-55
2022/04/20 02:28:38;;;;;;;;;;;18.90;50.60;;;;;;5042233;28;19917;-55
2022/04/20 02:31:03;;;;;;;;;;;18.90;50.70;;;;;;5044791;28;19976;-57
2022/04/20 02:33:28;;;;;;;;;;;18.90;50.60;;;;;;5043971;28;19912;-57
2022/04/20 02:35:54;;;;;;;;;;;18.90;50.60;;;;;;5044118;28;20614;-58
2022/04/20 02:38:19;;;;;;;;;;;18.90;50.50;;;;;;5044701;28;19928;-55
2022/04/20 02:40:45;;;;;;;;;;;18.90;50.60;;;;;;5042301;28;19924;-57
2022/04/20 02:43:10;;;;;;;;;;;18.90;50.60;;;;;;5044730;28;19960;-54
2022/04/20 02:45:36;;;;;;;;;;;18.90;50.60;;;;;;5044348;28;19925;-58
2022/04/20 02:48:01;;;;;;;;;;;18.90;50.60;;;;;;5044606;28;19913;-56
2022/04/20 02:50:28;;;;;;;;;;;18.80;50.50;;;;;;5043447;28;20010;-57
2022/04/20 02:52:53;;;;;;;;;;;18.80;50.50;;;;;;5043867;28;19912;-55
2022/04/20 02:55:19;;;;;;;;;;;18.80;50.50;;;;;;5043305;28;19916;-59
2022/04/20 02:57:44;;;;;;;;;;;18.80;50.50;;;;;;5043145;28;19916;-56
2022/04/20 03:00:10;;;;;;;;;;;18.80;50.50;;;;;;5040901;28;19924;-55
2022/04/20 03:02:35;;;;;;;;;;;18.80;50.50;;;;;;5041447;28;19924;-56
2022/04/20 03:05:01;;;;;;;;;;;18.80;50.50;;;;;;5042260;28;19960;-57
2022/04/20 03:07:27;;;;;;;;;;;18.80;50.50;;;;;;5043905;28;19912;-55
2022/04/20 03:09:53;;;;;;;;;;;18.80;50.50;;;;;;5041546;28;19923;-57
2022/04/20 03:12:18;;;;;;;;;;;18.80;50.50;;;;;;5041489;28;19913;-57
2022/04/20 03:14:43;;;;;;;;;;;18.80;50.50;;;;;;5042450;28;19913;-57
2022/04/20 03:17:09;;;;;;;;;;;18.70;50.50;;;;;;5042998;28;19924;-57
2022/04/20 03:19:34;;;;;;;;;;;18.80;50.50;;;;;;5041895;28;19951;-57
2022/04/20 03:22:00;;;;;;;;;;;18.80;50.50;;;;;;5039884;28;19917;-54
2022/04/20 03:24:25;;;;;;;;;;;18.80;50.50;;;;;;5043325;28;19920;-55
2022/04/20 03:26:51;;;;;;;;;;;18.80;50.50;;;;;;5041197;28;19917;-55
2022/04/20 03:29:16;;;;;;;;;;;18.80;50.50;;;;;;5040481;28;19913;-57
2022/04/20 03:31:42;;;;;;;;;;;18.70;50.40;;;;;;5041254;28;19921;-57
2022/04/20 03:34:07;;;;;;;;;;;18.70;50.50;;;;;;5042350;28;20424;-57
2022/04/20 03:36:33;;;;;;;;;;;18.70;50.50;;;;;;5040659;28;19934;-57
2022/04/20 03:38:59;;;;;;;;;;;18.70;50.50;;;;;;5040430;28;19936;-56
2022/04/20 03:41:25;;;;;;;;;;;18.70;50.50;;;;;;5041266;28;20402;-59
2022/04/20 03:43:50;;;;;;;;;;;18.70;50.50;;;;;;5043434;28;19924;-56
2022/04/20 03:46:16;;;;;;;;;;;18.70;50.50;;;;;;5041974;28;19923;-56
2022/04/20 03:48:42;;;;;;;;;;;18.70;50.50;;;;;;5041342;28;19943;-57
2022/04/20 03:51:07;;;;;;;;;;;18.70;50.50;;;;;;5041575;28;20652;-57
2022/04/20 03:53:33;;;;;;;;;;;18.70;50.50;;;;;;5043222;28;19970;-57
2022/04/20 03:55:58;;;;;;;;;;;18.70;50.50;;;;;;5042562;28;20397;-57
2022/04/20 03:58:23;;;;;;;;;;;18.70;50.50;;;;;;5041997;28;19917;-55
2022/04/20 04:00:51;;;;;;;;;;;18.70;50.50;;;;;;5041557;28;19916;-56
2022/04/20 04:03:17;;;;;;;;;;;18.70;50.50;;;;;;5041219;28;19925;-56
2022/04/20 04:05:43;;;;;;;;;;;18.60;50.40;;;;;;5042597;28;20429;-56
2022/04/20 04:08:09;;;;;;;;;;;18.60;50.50;;;;;;5042109;28;19921;-56
2022/04/20 04:10:34;;;;;;;;;;;18.60;50.50;;;;;;5029537;28;19983;-56
2022/04/20 04:13:00;;;;;;;;;;;18.60;50.40;;;;;;5041779;28;19917;-56
2022/04/20 04:15:25;;;;;;;;;;;18.60;50.40;;;;;;5036307;28;19927;-57
2022/04/20 04:17:54;;;;;;;;;;;18.60;50.40;;;;;;5041358;28;19913;-58
2022/04/20 04:20:21;;;;;;;;;;;18.60;50.40;;;;;;5041187;28;19924;-55
2022/04/20 04:22:46;;;;;;;;;;;18.60;50.40;;;;;;5041020;28;20036;-57
2022/04/20 04:25:12;;;;;;;;;;;18.60;50.40;;;;;;5041387;28;20346;-56
2022/04/20 04:27:37;;;;;;;;;;;18.60;50.40;;;;;;5040143;28;19917;-58
2022/04/20 04:30:03;;;;;;;;;;;18.60;50.40;;;;;;5040783;28;19920;-57
2022/04/20 04:32:29;;;;;;;;;;;18.60;50.50;;;;;;5019732;28;19921;-58
2022/04/20 04:34:54;;;;;;;;;;;18.60;50.60;;;;;;5022127;28;20453;-58
2022/04/20 04:37:20;;;;;;;;;;;18.60;50.60;;;;;;5046798;22;19925;-58
2022/04/20 04:39:46;;;;;;;;;;;18.60;50.70;;;;;;5041043;28;19921;-57
2022/04/20 04:42:11;;;;;;;;;;;18.50;50.70;;;;;;5032159;28;20308;-57
2022/04/20 04:44:37;;;;;;;;;;;18.50;50.80;;;;;;5040403;28;19920;-54
2022/04/20 04:49:46;;;;;;;;;;;18.60;51.40;;;;;;5041475;28;19923;-58
2022/04/20 04:52:12;;;;;;;;;;;18.60;51.60;;;;;;5041688;28;19916;-57
2022/04/20 04:54:41;;;;;;;;;;;18.60;51.60;;;;;;5043615;28;20058;-56
2022/04/20 04:57:09;;;;;;;;;;;18.60;51.60;;;;;;5042737;28;20003;-58
2022/04/20 04:59:36;;;;;;;;;;;18.70;51.60;;;;;;5031884;28;19920;-57
2022/04/20 05:02:01;;;;;;;;;;;18.80;51.30;;;;;;5042259;28;19923;-57
2022/04/20 05:04:27;;;;;;;;;;;18.80;51.10;;;;;;5040681;28;19917;-56
2022/04/20 05:06:52;;;;;;;;;;;18.90;50.90;;;;;;5037364;28;19949;-58
2022/04/20 05:09:17;;;;;;;;;;;19.00;50.90;;;;;;5040078;28;19920;-58
2022/04/20 05:11:43;;;;;;;;;;;19.00;50.90;;;;;;5040767;28;20337;-57
2022/04/20 05:14:09;;;;;;;;;;;19.00;50.80;;;;;;5041746;28;19928;-57
2022/04/20 05:16:34;;;;;;;;;;;19.00;50.70;;;;;;5057383;28;20085;-58
2022/04/20 05:18:59;;;;;;;;;;;19.00;51.30;;;;;;5040976;28;19917;-57
2022/04/20 05:21:25;;;;;;;;;;;19.00;50.70;;;;;;5041083;28;19916;-57
2022/04/20 05:23:50;;;;;;;;;;;19.00;50.70;;;;;;5041422;28;20412;-56
2022/04/20 05:26:16;;;;;;;;;;;19.00;51.10;;;;;;5038710;28;19917;-57
2022/04/20 05:28:41;;;;;;;;;;;19.00;51.10;;;;;;5025843;28;19916;-58
2022/04/20 05:31:07;;;;;;;;;;;19.10;51.20;;;;;;5040389;28;19916;-58
2022/04/20 05:33:34;;;;;;;;;;;19.10;51.80;;;;;;5040481;28;19994;-59
2022/04/20 05:35:59;;;;;;;;;;;19.10;52.20;;;;;;5040408;28;19989;-57
2022/04/20 05:43:53;;;;;;;;;;;19.10;52.20;;;;;;5041733;28;20316;-57
2022/04/20 05:46:18;;;;;;;;;;;19.00;51.90;;;;;;5041911;28;19917;-58
2022/04/20 05:48:43;;;;;;;;;;;19.00;52.00;;;;;;5038584;28;19941;-59
2022/04/20 05:51:10;;;;;;;;;;;19.00;51.80;;;;;;5041248;28;19917;-58
2022/04/20 05:53:36;;;;;;;;;;;19.00;51.90;;;;;;5040432;28;19999;-58
2022/04/20 05:56:02;;;;;;;;;;;19.00;52.00;;;;;;5040688;28;19927;-57
2022/04/20 05:58:27;;;;;;;;;;;19.00;51.80;;;;;;5038798;28;20625;-60
2022/04/20 06:00:53;;;;;;;;;;;19.00;51.80;;;;;;5044699;28;20401;-57
2022/04/20 06:03:18;;;;;;;;;;;18.90;51.60;;;;;;5046044;28;19913;-57
2022/04/20 06:05:44;;;;;;;;;;;18.90;51.60;;;;;;5045495;28;19913;-56
2022/04/20 06:08:09;;;;;;;;;;;18.80;51.60;;;;;;5045215;28;20381;-58
2022/04/20 06:10:35;;;;;;;;;;;18.90;51.60;;;;;;5044873;28;19924;-57
2022/04/20 06:13:00;;;;;;;;;;;18.80;51.40;;;;;;5044218;28;19923;-57
2022/04/20 06:15:25;;;;;;;;;;;18.80;51.40;;;;;;5045739;28;19986;-58
2022/04/20 06:17:51;;;;;;;;;;;18.80;51.30;;;;;;5031877;28;19959;-57
2022/04/20 06:20:17;;;;;;;;;;;18.80;51.20;;;;;;5044622;28;19917;-57
2022/04/20 06:22:42;;;;;;;;;;;18.80;51.10;;;;;;5046016;28;20401;-57
2022/04/20 06:25:08;;;;;;;;;;;18.80;51.20;;;;;;5046475;28;19959;-58
2022/04/20 06:27:34;;;;;;;;;;;18.80;51.20;;;;;;5046205;28;20276;-58
2022/04/20 06:29:59;;;;;;;;;;;18.80;51.10;;;;;;5043798;28;19920;-58
2022/04/20 06:32:25;;;;;;;;;;;18.70;51.00;;;;;;5045883;28;20370;-57
2022/04/20 06:34:51;;;;;;;;;;;18.70;50.90;;;;;;5045026;28;20233;-57
2022/04/20 06:37:18;;;;;;;;;;;18.70;50.90;;;;;;5043464;28;19925;-58
2022/04/20 06:39:43;;;;;;;;;;;18.70;51.10;;;;;;5044528;28;19913;-58
2022/04/20 06:42:09;;;;;;;;;;;18.60;51.10;;;;;;5045682;28;20435;-56
2022/04/20 06:44:34;;;;;;;;;;;18.70;51.20;;;;;;5045813;28;19920;-57
2022/04/20 06:47:00;;;;;;;;;;;18.60;51.20;;;;;;5044346;28;19912;-58
2022/04/20 06:49:25;;;;;;;;;;;18.60;51.90;;;;;;5042016;28;19912;-56
2022/04/20 07:00:03;;;;;;;;;;;18.60;51.30;;;;;;5042768;28;19923;-58
2022/04/20 07:02:29;;;;;;;;;;;18.60;51.30;;;;;;5044975;28;20015;-57
2022/04/20 07:04:54;;;;;;;;;;;18.50;51.30;;;;;;5044067;28;19936;-57
2022/04/20 07:07:19;;;;;;;;;;;18.50;51.30;;;;;;5044829;28;20317;-58
2022/04/20 07:09:45;;;;;;;;;;;18.50;51.30;;;;;;5043722;28;19917;-57
2022/04/20 07:12:10;;;;;;;;;;;18.50;51.30;;;;;;5044533;28;19913;-57
2022/04/20 07:14:36;;;;;;;;;;;18.50;51.30;;;;;;5043348;28;19939;-58
2022/04/20 07:17:02;;;;;;;;;;;18.50;51.90;;;;;;5042744;28;21370;-56
2022/04/20 07:19:27;;;;;;;;;;;18.50;52.30;;;;;;5042733;28;20003;-57
2022/04/20 07:21:53;;;;;;;;;;;18.60;52.50;;;;;;5034387;28;19916;-57
2022/04/20 07:24:18;;;;;;;;;;;18.60;52.60;;;;;;5043432;28;19979;-57
2022/04/20 07:26:44;;;;;;;;;;;18.70;52.50;;;;;;5044659;28;19913;-56
2022/04/20 07:29:09;;;;;;;;;;;18.70;52.10;;;;;;5043253;28;20404;-58
2022/04/20 07:31:35;;;;;;;;;;;18.70;51.90;;;;;;5045060;28;19939;-58
2022/04/20 07:34:00;;;;;;;;;;;18.70;51.50;;;;;;5043813;28;19916;-57
2022/04/20 07:36:25;;;;;;;;;;;18.70;51.40;;;;;;5043251;28;19920;-58
2022/04/20 07:38:51;;;;;;;;;;;18.70;51.30;;;;;;5041718;28;19923;-57
2022/04/20 07:41:16;;;;;;;;;;;18.70;51.20;;;;;;5042162;28;20087;-58
2022/04/20 07:43:43;;;;;;;;;;;18.70;51.20;;;;;;5043524;28;19916;-58
2022/04/20 07:46:08;;;;;;;;;;;18.70;51.20;;;;;;5023895;28;20414;-58
2022/04/20 07:48:33;;;;;;;;;;;18.70;51.20;;;;;;5022304;28;20003;-57
2022/04/20 07:51:02;;;;;;;;;;;18.70;51.30;;;;;;5041361;28;19979;-58
2022/04/20 07:53:27;;;;;;;;;;;18.70;51.30;;;;;;5041507;28;20400;-58
2022/04/20 07:55:53;;;;;;;;;;;18.70;51.30;;;;;;5041873;28;19928;-56
2022/04/20 07:58:18;;;;;;;;;;;18.70;51.30;;;;;;5040501;28;20404;-58
2022/04/20 08:00:45;;;;;;;;;;;18.70;51.40;;;;;;5040999;28;19924;-53
2022/04/20 08:03:12;;;;;;;;;;;18.70;51.40;;;;;;5041864;28;20609;-54
2022/04/20 08:05:37;;;;;;;;;;;18.70;51.40;;;;;;5043381;28;19940;-57
2022/04/20 08:08:03;;;;;;;;;;;18.70;51.50;;;;;;5043538;28;19955;-57
2022/04/20 08:10:28;;;;;;;;;;;18.70;51.50;;;;;;5039880;28;19912;-58
2022/04/20 08:12:53;;;;;;;;;;;18.60;51.40;;;;;;5042901;28;19921;-57
2022/04/20 08:15:19;;;;;;;;;;;18.70;51.40;;;;;;5042164;28;19923;-58
2022/04/20 08:17:45;;;;;;;;;;;18.70;51.50;;;;;;5042798;28;20306;-58
2022/04/20 08:20:10;;;;;;;;;;;18.70;51.50;;;;;;5040590;28;19913;-57
2022/04/20 08:22:40;;;;;;;;;;;18.60;51.50;;;;;;5042364;28;20334;-57
2022/04/20 08:25:06;;;;;;;;;;;18.60;51.40;;;;;;5042724;28;19917;-56
2022/04/20 08:27:31;;;;;;;;;;;18.70;51.50;;;;;;5042835;28;19923;-57
2022/04/20 08:29:57;;;;;;;;;;;18.70;51.50;;;;;;5040842;28;19926;-56
2022/04/20 08:32:23;;;;;;;;;;;18.60;51.40;;;;;;5042166;28;20356;-58
2022/04/20 08:34:48;;;;;;;;;;;18.60;51.40;;;;;;5040622;28;19917;-56
2022/04/20 08:37:14;;;;;;;;;;;18.70;51.50;;;;;;5042403;28;19936;-58
2022/04/20 08:39:39;;;;;;;;;;;18.60;51.40;;;;;;5041143;28;20106;-57
2022/04/20 08:42:06;;;;;;;;;;;18.60;51.40;;;;;;5042772;28;19978;-57
2022/04/20 08:44:33;;;;;;;;;;;18.60;51.40;;;;;;5040227;28;20773;-56
2022/04/20 08:46:59;;;;;;;;;;;18.70;51.50;;;;;;5040856;28;19963;-57
2022/04/20 08:49:24;;;;;;;;;;;18.60;51.40;;;;;;5041388;28;19935;-57
2022/04/20 08:54:34;;;;;;;;;;;18.60;51.40;;;;;;5042146;28;20035;-56
2022/04/20 08:57:19;;;;;;;;;;;18.60;51.40;;;;;;5041631;28;20393;-58
2022/04/20 08:59:51;;;;;;;;;;;18.60;51.40;;;;;;5038917;28;20274;-58
2022/04/20 09:02:16;;;;;;;;;;;18.60;51.40;;;;;;5042338;28;20336;-55
2022/04/20 09:04:42;;;;;;;;;;;18.60;51.40;;;;;;5040035;28;19917;-56
2022/04/20 09:07:08;;;;;;;;;;;18.60;51.40;;;;;;5042400;28;19921;-59
2022/04/20 09:09:33;;;;;;;;;;;18.60;51.40;;;;;;5042308;28;19927;-57
2022/04/20 09:11:59;;;;;;;;;;;18.60;51.40;;;;;;5040475;28;19948;-56
2022/04/20 09:14:34;;;;;;;;;;;18.60;51.40;;;;;;5022858;28;19941;-58
2022/04/20 09:17:01;;;;;;;;;;;18.60;51.40;;;;;;5040426;28;19917;-57
2022/04/20 09:19:27;;;;;;;;;;;18.60;51.40;;;;;;5039009;28;19939;-58
2022/04/20 09:21:53;;;;;;;;;;;18.60;51.40;;;;;;5033585;28;20315;-58
2022/04/20 09:24:18;;;;;;;;;;;18.60;51.40;;;;;;5040230;28;19939;-56
2022/04/20 09:26:51;;;;;;;;;;;18.60;51.40;;;;;;5041853;28;19913;-57
2022/04/20 09:29:16;;;;;;;;;;;18.60;51.30;;;;;;5038822;28;19956;-57
2022/04/20 09:31:45;;;;;;;;;;;18.60;51.30;;;;;;5041320;28;19913;-58
2022/04/20 09:34:33;;;;;;;;;;;18.70;51.40;;;;;;5041706;28;19917;-57
2022/04/20 09:37:03;;;;;;;;;;;18.60;51.30;;;;;;5045885;28;19931;-57
2022/04/20 09:39:31;;;;;;;;;;;18.60;51.30;;;;;;5042681;28;19971;-57
2022/04/20 09:41:58;;;;;;;;;;;18.60;51.30;;;;;;5059988;28;19936;-57
2022/04/20 09:44:24;;;;;;;;;;;18.60;51.40;;;;;;5043916;28;19948;-57
2022/04/20 09:49:34;;;;;;;;;;;18.60;51.40;;;;;;5044695;28;19939;-58
2022/04/20 09:52:10;;;;;;;;;;;18.60;51.30;;;;;;5045640;28;20528;-56
2022/04/20 09:54:36;;;;;;;;;;;18.60;51.40;;;;;;5045721;28;19912;-57
2022/04/20 09:57:12;;;;;;;;;;;18.60;51.40;;;;;;5044868;28;19931;-57
2022/04/20 09:59:53;;;;;;;;;;;18.60;51.30;;;;;;5042790;28;19921;-59
2022/04/20 10:02:19;;;;;;;;;;;18.60;51.30;;;;;;5045529;28;19917;-58
2022/04/20 10:04:45;;;;;;;;;;;18.70;51.40;;;;;;5045159;28;19920;-57
2022/04/20 10:07:10;;;;;;;;;;;18.60;51.30;;;;;;5044903;28;19923;-57
2022/04/20 10:09:35;;;;;;;;;;;18.60;51.30;;;;;;5043972;28;19924;-58
2022/04/20 10:12:01;;;;;;;;;;;18.60;51.30;;;;;;5042832;28;19916;-57
2022/04/20 10:17:10;;;;;;;;;;;18.60;51.30;;;;;;5033633;28;19998;-57
2022/04/20 10:19:37;;;;;;;;;;;18.60;51.30;;;;;;5026250;28;20381;-57
2022/04/20 10:22:03;;;;;;;;;;;18.60;51.30;;;;;;5044793;28;19913;-58
2022/04/20 10:24:29;;;;;;;;;;;18.70;51.40;;;;;;5043161;28;19983;-57
2022/04/20 10:26:55;;;;;;;;;;;18.60;51.30;;;;;;5043860;28;19913;-58
2022/04/20 10:29:26;;;;;;;;;;;18.60;51.30;;;;;;5042541;28;19924;-58
2022/04/20 10:32:06;;;;;;;;;;;18.60;51.30;;;;;;5043442;28;20445;-58
2022/04/20 10:34:31;;;;;;;;;;;18.60;51.30;;;;;;5042607;28;19912;-58
2022/04/20 10:37:00;;;;;;;;;;;18.60;51.40;;;;;;5042389;28;19928;-57
2022/04/20 10:39:27;;;;;;;;;;;18.60;51.30;;;;;;5044029;28;19913;-56
2022/04/20 10:42:11;;;;;;;;;;;18.60;51.30;;;;;;5064189;22;19925;-57
2022/04/20 10:44:55;;;;;;;;;;;18.60;51.30;;;;;;5030571;28;19923;-56
2022/04/20 10:47:22;;;;;;;;;;;18.70;51.40;;;;;;5039757;28;19913;-58
2022/04/20 10:49:49;;;;;;;;;;;18.60;51.30;;;;;;5025442;28;19913;-56
2022/04/20 10:52:30;;;;;;;;;;;18.60;51.30;;;;;;5025502;28;20003;-56
2022/04/20 10:54:56;;;;;;;;;;;18.60;51.30;;;;;;5025671;28;19996;-58
2022/04/20 10:57:35;;;;;;;;;;;18.60;51.20;;;;;;5025350;28;20305;-55
2022/04/20 11:00:19;;;;;;;;;;;18.60;51.20;;;;;;5023700;28;19945;-55
2022/04/20 11:02:48;;;;;;;;;;;18.60;51.20;;;;;;5025139;28;19917;-57
2022/04/20 11:05:14;;;;;;;;;;;18.60;51.20;;;;;;5025595;28;20357;-58
2022/04/20 11:07:59;;;;;;;;;;;18.60;51.20;;;;;;5023719;28;19952;-57
2022/04/20 11:10:25;;;;;;;;;;;18.60;51.20;;;;;;5025208;28;19975;-57
2022/04/20 11:18:40;;;;;;;;;;;18.60;51.20;;;;;;5025242;28;19948;-58
2022/04/20 11:21:11;;;;;;;;;;;18.60;51.20;;;;;;5025440;28;19944;-57
2022/04/20 11:23:47;;;;;;;;;;;18.60;51.30;;;;;;5025248;28;19944;-55
2022/04/20 11:26:14;;;;;;;;;;;18.60;51.30;;;;;;5024347;28;21591;-58
2022/04/20 11:28:40;;;;;;;;;;;18.60;51.30;;;;;;5023385;28;19959;-57
2022/04/20 11:31:06;;;;;;;;;;;18.50;51.30;;;;;;5025356;28;19936;-57
2022/04/20 11:33:32;;;;;;;;;;;18.50;51.30;;;;;;5025135;28;20570;-59
2022/04/20 11:35:57;;;;;;;;;;;18.60;51.30;;;;;;5024545;28;19970;-58
2022/04/20 11:38:40;;;;;;;;;;;18.60;51.30;;;;;;5024456;28;19921;-57
2022/04/20 11:41:05;;;;;;;;;;;18.50;51.30;;;;;;5024959;28;20297;-58
2022/04/20 11:43:31;;;;;;;;;;;18.60;51.30;;;;;;5024939;28;19914;-57
2022/04/20 11:45:56;;;;;;;;;;;18.60;51.30;;;;;;5024851;28;19920;-57
2022/04/20 11:48:22;;;;;;;;;;;18.60;51.30;;;;;;5024304;28;19920;-56
2022/04/20 11:50:57;;;;;;;;;;;18.50;51.30;;;;;;5024575;28;19913;-56
2022/04/20 11:53:42;;;;;;;;;;;18.50;51.40;;;;;;5022593;28;21993;-57
2022/04/20 11:56:07;;;;;;;;;;;18.50;51.80;;;;;;5024918;28;19928;-56
2022/04/20 11:58:33;;;;;;;;;;;18.50;51.30;;;;;;5023068;28;19917;-58
2022/04/20 12:01:00;;;;;;;;;;;18.50;51.30;;;;;;5024381;28;19929;-58
2022/04/20 12:03:32;;;;;;;;;;;18.50;51.40;;;;;;5024519;28;20002;-57
2022/04/20 12:06:01;;;;;;;;;;;18.50;51.30;;;;;;5024866;28;19917;-58
2022/04/20 12:08:26;;;;;;;;;;;18.50;51.30;;;;;;5024016;28;20421;-56
2022/04/20 12:10:52;;;;;;;;;;;18.50;51.30;;;;;;5025017;28;19919;-58
2022/04/20 12:13:28;;;;;;;;;;;18.50;51.30;;;;;;5023407;28;20489;-55
2022/04/20 12:16:08;;;;;;;;;;;18.50;51.30;;;;;;5025429;28;19928;-58
2022/04/20 12:18:35;;;;;;;;;;;18.50;51.30;;;;;;5024032;28;20322;-56
2022/04/20 12:21:04;;;;;;;;;;;18.50;51.30;;;;;;5025018;28;19996;-56
2022/04/20 12:23:32;;;;;;;;;;;18.50;51.30;;;;;;5024370;28;20024;-55
2022/04/20 12:25:58;;;;;;;;;;;18.50;51.30;;;;;;5024464;28;19913;-58
2022/04/20 12:28:35;;;;;;;;;;;18.50;51.30;;;;;;5024280;28;20424;-55
2022/04/20 12:31:02;;;;;;;;;;;18.50;51.30;;;;;;5005530;28;19920;-56
2022/04/20 12:33:28;;;;;;;;;;;18.50;51.30;;;;;;5004785;28;20474;-59
2022/04/20 12:35:57;;;;;;;;;;;18.50;51.30;;;;;;5023810;28;19927;-55
2022/04/20 12:38:23;;;;;;;;;;;18.50;51.30;;;;;;5024117;28;19921;-56
2022/04/20 12:40:48;;;;;;;;;;;18.50;51.30;;;;;;5023890;28;19924;-55
2022/04/20 12:43:14;;;;;;;;;;;18.50;51.30;;;;;;5024151;28;19917;-55
2022/04/20 12:45:39;;;;;;;;;;;18.50;51.30;;;;;;5024239;28;20589;-56
2022/04/20 12:48:05;;;;;;;;;;;18.50;51.30;;;;;;5023980;28;20305;-57
2022/04/20 12:50:33;;;;;;;;;;;18.50;51.30;;;;;;5023805;28;19913;-58
2022/04/20 12:52:59;;;;;;;;;;;18.50;51.30;;;;;;5024026;28;20451;-55
2022/04/20 12:55:33;;;;;;;;;;;18.50;51.30;;;;;;5023569;28;19921;-59
2022/04/20 13:03:31;;;;;;;;;;;18.50;51.40;;;;;;5023671;28;19971;-55
2022/04/20 13:05:56;;;;;;;;;;;18.60;51.40;;;;;;5023306;28;20000;-57
2022/04/20 13:08:22;;;;;;;;;;;18.50;51.40;;;;;;5022654;28;19971;-57
2022/04/20 13:10:49;;;;;;;;;;;18.50;51.50;;;;;;5023987;28;19916;-55
2022/04/20 13:13:14;;;;;;;;;;;18.60;51.50;;;;;;5023412;28;19983;-58
2022/04/20 13:15:40;;;;;;;;;;;18.50;51.50;;;;;;5023630;28;19917;-58
2022/04/20 13:18:06;;;;;;;;;;;18.50;51.50;;;;;;5023538;28;19936;-55
2022/04/20 13:20:31;;;;;;;;;;;18.50;51.60;;;;;;5022781;28;19919;-57
2022/04/20 13:22:57;;;;;;;;;;;18.50;51.60;;;;;;5023109;28;19917;-56
2022/04/20 13:28:07;;;;;;;;;;;18.50;51.60;;;;;;5023112;28;19976;-57
2022/04/20 13:30:35;;;;;;;;;;;18.50;51.60;;;;;;5022069;28;20457;-57
2022/04/20 13:33:01;;;;;;;;;;;18.50;51.60;;;;;;5023041;28;19914;-57
2022/04/20 13:35:26;;;;;;;;;;;18.50;51.60;;;;;;5023078;28;19917;-57
2022/04/20 13:37:52;;;;;;;;;;;18.50;51.60;;;;;;5022587;28;19966;-57
2022/04/20 13:40:18;;;;;;;;;;;18.50;51.60;;;;;;5022524;28;20436;-56
2022/04/20 13:42:43;;;;;;;;;;;18.60;51.60;;;;;;5021684;28;19913;-57
2022/04/20 13:45:08;;;;;;;;;;;18.60;51.70;;;;;;5021839;28;19917;-56
2022/04/20 13:47:34;;;;;;;;;;;18.60;51.60;;;;;;5022701;28;19919;-58
2022/04/20 13:50:00;;;;;;;;;;;18.60;51.70;;;;;;5022495;28;19921;-56
2022/04/20 13:52:25;;;;;;;;;;;18.60;51.70;;;;;;5022975;28;20386;-54
2022/04/20 13:54:53;;;;;;;;;;;18.60;51.70;;;;;;5021947;28;19913;-58
2022/04/20 13:57:19;;;;;;;;;;;18.60;51.70;;;;;;5022604;28;19917;-57
2022/04/20 13:59:45;;;;;;;;;;;18.60;51.80;;;;;;5022774;28;19913;-55
2022/04/20 14:02:11;;;;;;;;;;;18.60;51.80;;;;;;5022736;28;20169;-56
2022/04/20 14:04:37;;;;;;;;;;;18.50;51.80;;;;;;5022993;28;20007;-55
2022/04/20 14:07:03;;;;;;;;;;;18.50;51.80;;;;;;5022781;28;20000;-58
2022/04/20 14:09:28;;;;;;;;;;;18.50;51.80;;;;;;5022492;28;19928;-55
2022/04/20 14:11:54;;;;;;;;;;;18.50;51.80;;;;;;5022105;28;20589;-56
2022/04/20 14:14:19;;;;;;;;;;;18.50;51.80;;;;;;5020817;28;19920;-54
2022/04/20 14:16:45;;;;;;;;;;;18.50;51.80;;;;;;5018170;28;19924;-57
2022/04/20 14:19:10;;;;;;;;;;;18.60;51.90;;;;;;5019432;28;20290;-56
2022/04/20 14:21:36;;;;;;;;;;;18.50;51.80;;;;;;5025157;28;20302;-55
2022/04/20 14:24:02;;;;;;;;;;;18.50;51.90;;;;;;5025873;28;19913;-56
2022/04/20 14:32:12;;;;;;;;;;;18.50;51.80;;;;;;5025061;28;19967;-57
2022/04/20 14:34:41;;;;;;;;;;;18.50;51.80;;;;;;5026571;28;19913;-57
2022/04/20 14:37:06;;;;;;;;;;;18.50;51.80;;;;;;5025903;28;20006;-55
2022/04/20 14:39:32;;;;;;;;;;;18.60;51.90;;;;;;5024252;28;19983;-57
2022/04/20 14:41:58;;;;;;;;;;;18.50;51.90;;;;;;5025772;28;20030;-55
2022/04/20 14:44:24;;;;;;;;;;;18.50;51.90;;;;;;5024519;28;19913;-56
2022/04/20 14:46:50;;;;;;;;;;;18.50;51.90;;;;;;5025821;28;19922;-58
2022/04/20 14:49:15;;;;;;;;;;;18.50;51.90;;;;;;5025418;28;19917;-55
2022/04/20 14:51:43;;;;;;;;;;;18.50;51.90;;;;;;5026129;28;20072;-56
2022/04/20 14:54:08;;;;;;;;;;;18.50;51.90;;;;;;5035767;28;19913;-56
2022/04/20 14:56:34;;;;;;;;;;;18.50;51.90;;;;;;5039998;28;19939;-58
2022/04/20 14:58:59;;;;;;;;;;;18.50;51.90;;;;;;5026449;28;19920;-58